LiveATC.Net - Listen to live air traffic control over the Internet!
Airport/ARTCC Code
Frequency Search
(e.g., 124.400, 128.75)
Site-wide search
 


Browse Feeds
Top 50 Feeds
HF Oceanic Feeds
Coverage Map
Bad Weather Areas

LiveATC FAQ

Increase Coverage

Contact LiveATC.net
Press Inquiries

LiveATC on iPhone
LiveATC on Android

LiveATC Mobile
(Mobile browser)

ATC Audio Archives
Interesting Recordings

LiveATC Forums

Home Page
About LiveATC.net


Terms of Use
Privacy Policy

AIRMETs/SIGMETs

FAA Airport Status
NAS Status
Arrival Demand


Server Software By:
Icecast.org
Liquidsoap

Select an area of interest:
U.S. Feeds: Class B Airports | Class C Airports | Class D/Other Airports | ARTCC (Centers)
International Feeds: Canada | Europe | Oceania | Asia | South America | North/Central America | Africa
Misc Feeds: HF Feeds
Search by ICAO/IATA airport code:   (e.g., kbos, kjfk, lax, eham, etc.)


Currently Available Live Feeds: 3223
Status Updated: Tue Apr 23 2024 11:17:05 UTC


NOTICE

Unauthorized use prohibited. See LiveATC.net Terms of Service

Africa Airport Feeds

 

FIMP Twr/App/Ctr #1 (Archives)
Plaine Magnien, Mauritius

Feed Status: UP
Listen in your browser - HTML5 player(in browser, HTML5)
Click here to listen with your own player(launches your MP3 player)

FIMP 231000Z 12005KT 9999 FEW018 29/24 Q1014


Listeners: 0 out of 2386 total

FIMP Approach: 119.100
FIMP Tower: 118.100
FMEE Approach/Departure: 127.200
Mauritius Centre: 129.300

FIMP Twr/App/Ctr #2 (Archives)
Plaine Magnien, Mauritius

Feed Status: UP
Listen in your browser - HTML5 player(in browser, HTML5)
Click here to listen with your own player(launches your MP3 player)

FIMP 231000Z 12005KT 9999 FEW018 29/24 Q1014


Listeners: 0 out of 2386 total

FIMP Approach: 119.100
FIMP Tower: 118.100
Mauritius Centre: 129.300

FMEE Tower (Archives)
Sainte-Marie, Reunion

Feed Status: UP
Listen in your browser - HTML5 player(in browser, HTML5)
Click here to listen with your own player(launches your MP3 player)

FMEE 231030Z AUTO 08011KT CAVOK 30/25 Q1013 NOSIG


Listeners: 1 out of 2386 total

Gillot Tower: 118.400

FMEP Info #1 (Archives)
Saint-Pierre, Reunion

Feed Status: UP
Listen in your browser - HTML5 player(in browser, HTML5)
Click here to listen with your own player(launches your MP3 player)

FMEP 231030Z AUTO 15009KT CAVOK 29/25 Q1013 NOSIG


Listeners: 1 out of 2386 total

Saint-Pierre Info: 122.400

FMEP Info #2 (Archives)
Saint-Pierre, Reunion

Feed Status: UP
Listen in your browser - HTML5 player(in browser, HTML5)
Click here to listen with your own player(launches your MP3 player)

FMEP 231030Z AUTO 15009KT CAVOK 29/25 Q1013 NOSIG


Listeners: 0 out of 2386 total

Saint-Pierre Info: 122.400

FMMI Twr/App/Center (Archives)
Antananarivo, Madagascar

Feed Status: UP
Listen in your browser - HTML5 player(in browser, HTML5)
Click here to listen with your own player(launches your MP3 player)

FMMI 231100Z 21004KT 140V290 9999 SCT020 29/15 Q1018 NOSIG


Listeners: 1 out of 2386 total

Ivato Approach: 125.700
Ivato Tower: 120.100
Tana Control: 128.900

GOBD Gnd/Twr/App (Archives)
Dakar, Senegal

Feed Status: UP
Listen in your browser - HTML5 player(in browser, HTML5)
Click here to listen with your own player(launches your MP3 player)

GOBD 231030Z 34009KT 310V020 CAVOK 25/18 Q1012 NOSIG


Listeners: 0 out of 2386 total

Dakar Approach/Departure: 120.500
Dakar Ground: 121.800
Dakar Tower: 118.800

HAAB Approach (Archives)
Addis Ababa, Ethiopia

Feed Status: UP
Listen in your browser - HTML5 player(in browser, HTML5)
Click here to listen with your own player(launches your MP3 player)

HAAB 230500Z 11006KT 9999 SCT025 17/12 Q1026


Listeners: 0 out of 2386 total

Bole Approach: 119.700

HAAB Ground
Addis Ababa, Ethiopia

Feed Status: DOWN
Offline since: 2023-07-18 16:02:22 UTC

HAAB 230500Z 11006KT 9999 SCT025 17/12 Q1026

Bole Ground: 121.900

HAAB Tower (Archives)
Addis Ababa, Ethiopia

Feed Status: UP
Listen in your browser - HTML5 player(in browser, HTML5)
Click here to listen with your own player(launches your MP3 player)

HAAB 230500Z 11006KT 9999 SCT025 17/12 Q1026


Listeners: 0 out of 2386 total

Bole Tower: 118.100